Wetterdaten: Woche 11.12.06 - 17.12.06 (KW50)
Datum Zeit Temperatur Luftfeuchte Luftdruck Niederschlag Wind Richtung Sonnenschein UV-Strahlung Solar Taupunkt Windchill Windben
11.12.2006 00:00 0.7 C 99 % 1033.9 hPa 0.0 l/m 0.2 km/h (0 Bft) SO 0.00 h 0.0 UV-I 0 W/m 0.6 C 0.7 C 1.0 km/h (0 Bft)
11.12.2006 01:00 0.6 C 99 % 1033.8 hPa 0.0 l/m 0.2 km/h (0 Bft) O-SO 0.00 h 0.0 UV-I 0 W/m 0.5 C 0.6 C 1.0 km/h (0 Bft)
11.12.2006 02:00 0.8 C 100 % 1033.9 hPa 0.0 l/m 0.0 km/h (0 Bft) N 0.00 h 0.0 UV-I 0 W/m 0.8 C 0.8 C 0.1 km/h (0 Bft)
11.12.2006 03:00 1.1 C 100 % 1033.5 hPa 0.0 l/m 0.6 km/h (0 Bft) O-SO 0.00 h 0.0 UV-I 0 W/m 1.1 C 1.1 C 1.7 km/h (1 Bft)
11.12.2006 04:00 1.3 C 100 % 1033.1 hPa 0.0 l/m 0.7 km/h (0 Bft) W-SW 0.00 h 0.0 UV-I 0 W/m 1.3 C 1.2 C 1.9 km/h (1 Bft)
11.12.2006 05:00 1.2 C 100 % 1032.8 hPa 0.0 l/m 1.7 km/h (1 Bft) S 0.00 h 0.0 UV-I 0 W/m 1.2 C 1.1 C 4.8 km/h (1 Bft)
11.12.2006 06:00 0.9 C 100 % 1032.8 hPa 0.0 l/m 1.5 km/h (1 Bft) S 0.00 h 0.0 UV-I 0 W/m 0.9 C 0.8 C 3.7 km/h (1 Bft)
11.12.2006 07:00 1.0 C 100 % 1033.0 hPa 0.0 l/m 0.7 km/h (0 Bft) S-SW 0.00 h 0.0 UV-I 0 W/m 1.0 C 1.0 C 2.2 km/h (1 Bft)
11.12.2006 08:00 1.1 C 100 % 1032.7 hPa 0.0 l/m 0.4 km/h (0 Bft) S-SW 0.32 h 0.0 UV-I 21 W/m 1.1 C 1.1 C 1.9 km/h (1 Bft)
11.12.2006 09:00 1.2 C 98 % 1032.6 hPa 0.0 l/m 1.3 km/h (1 Bft) W-SW 0.00 h 0.5 UV-I 63 W/m 0.9 C 1.2 C 3.7 km/h (1 Bft)
11.12.2006 10:00 2.1 C 88 % 1032.5 hPa 0.0 l/m 3.1 km/h (1 Bft) SW 0.65 h 0.7 UV-I 168 W/m 0.3 C 1.8 C 6.8 km/h (2 Bft)
11.12.2006 11:00 2.9 C 84 % 1031.7 hPa 0.0 l/m 4.0 km/h (1 Bft) S-SW 0.38 h 0.8 UV-I 170 W/m 0.5 C 2.4 C 8.2 km/h (2 Bft)
11.12.2006 12:00 3.5 C 81 % 1030.7 hPa 0.0 l/m 2.9 km/h (1 Bft) S 0.00 h 0.8 UV-I 118 W/m 0.5 C 3.2 C 6.4 km/h (2 Bft)
11.12.2006 13:00 3.8 C 76 % 1030.1 hPa 0.2 l/m 4.7 km/h (1 Bft) SW 0.13 h 0.8 UV-I 134 W/m 0.1 C 3.0 C 9.1 km/h (2 Bft)
11.12.2006 14:00 3.7 C 77 % 1029.6 hPa 0.0 l/m 2.9 km/h (1 Bft) S 0.00 h 0.5 UV-I 62 W/m 0.0 C 3.5 C 6.5 km/h (2 Bft)
11.12.2006 15:00 3.6 C 78 % 1029.1 hPa 0.0 l/m 3.2 km/h (1 Bft) SW 0.00 h 0.0 UV-I 37 W/m 0.2 C 3.3 C 6.7 km/h (2 Bft)
11.12.2006 16:00 3.4 C 79 % 1029.1 hPa 0.0 l/m 2.2 km/h (1 Bft) S 0.00 h 0.0 UV-I 10 W/m 0.0 C 3.3 C 5.1 km/h (1 Bft)
11.12.2006 17:00 3.2 C 79 % 1028.8 hPa 0.0 l/m 1.5 km/h (1 Bft) S-SO 0.00 h 0.0 UV-I 0 W/m -0.0 C 3.2 C 4.3 km/h (1 Bft)
11.12.2006 18:00 3.2 C 80 % 1028.8 hPa 0.0 l/m 1.2 km/h (1 Bft) S-SW 0.00 h 0.0 UV-I 0 W/m 0.1 C 3.1 C 3.8 km/h (1 Bft)
11.12.2006 19:00 3.2 C 78 % 1028.5 hPa 0.0 l/m 1.1 km/h (0 Bft) S-SO 0.00 h 0.0 UV-I 0 W/m -0.2 C 3.2 C 3.3 km/h (1 Bft)
11.12.2006 20:00 3.3 C 78 % 1028.1 hPa 0.0 l/m 0.8 km/h (0 Bft) S-SO 0.00 h 0.0 UV-I 0 W/m -0.2 C 3.3 C 2.6 km/h (1 Bft)
11.12.2006 21:00 3.2 C 80 % 1027.9 hPa 0.0 l/m 1.3 km/h (1 Bft) S 0.00 h 0.0 UV-I 0 W/m 0.1 C 3.2 C 3.7 km/h (1 Bft)
11.12.2006 22:00 3.3 C 79 % 1027.7 hPa 0.0 l/m 1.3 km/h (1 Bft) S-SO 0.00 h 0.0 UV-I 0 W/m 0.0 C 3.3 C 3.8 km/h (1 Bft)
11.12.2006 23:00 3.3 C 78 % 1027.3 hPa 0.0 l/m 1.5 km/h (1 Bft) S 0.00 h 0.0 UV-I 0 W/m -0.2 C 3.1 C 3.6 km/h (1 Bft)
12.12.2006 00:00 3.3 C 78 % 1026.7 hPa 0.0 l/m 1.9 km/h (1 Bft) S-SO 0.00 h 0.0 UV-I 0 W/m -0.2 C 3.2 C 4.9 km/h (1 Bft)
12.12.2006 01:00 3.2 C 78 % 1026.2 hPa 0.0 l/m 1.1 km/h (1 Bft) S-SO 0.00 h 0.0 UV-I 0 W/m -0.2 C 3.2 C 3.0 km/h (1 Bft)
12.12.2006 02:00 3.2 C 77 % 1026.0 hPa 0.0 l/m 1.2 km/h (1 Bft) S-SO 0.00 h 0.0 UV-I 0 W/m -0.4 C 3.1 C 3.3 km/h (1 Bft)
12.12.2006 03:00 3.2 C 78 % 1025.8 hPa 0.0 l/m 1.0 km/h (0 Bft) S-SW 0.00 h 0.0 UV-I 0 W/m -0.2 C 3.2 C 3.2 km/h (1 Bft)
12.12.2006 04:00 3.4 C 78 % 1025.8 hPa 0.0 l/m 1.6 km/h (1 Bft) S 0.00 h 0.0 UV-I 0 W/m -0.2 C 3.3 C 4.0 km/h (1 Bft)
12.12.2006 05:00 3.5 C 79 % 1025.9 hPa 0.0 l/m 1.1 km/h (1 Bft) S 0.00 h 0.0 UV-I 0 W/m 0.2 C 3.5 C 3.1 km/h (1 Bft)
12.12.2006 06:00 3.3 C 82 % 1026.5 hPa 0.0 l/m 1.5 km/h (1 Bft) S 0.00 h 0.0 UV-I 0 W/m 0.6 C 3.2 C 3.6 km/h (1 Bft)
12.12.2006 07:00 3.5 C 84 % 1027.4 hPa 0.0 l/m 1.4 km/h (1 Bft) NW 0.00 h 0.0 UV-I 0 W/m 1.0 C 3.4 C 3.1 km/h (1 Bft)
12.12.2006 08:00 3.3 C 84 % 1028.2 hPa 0.0 l/m 0.5 km/h (0 Bft) NW 0.00 h 0.0 UV-I 7 W/m 0.8 C 3.3 C 2.0 km/h (1 Bft)
12.12.2006 09:00 3.9 C 83 % 1028.5 hPa 0.0 l/m 1.4 km/h (1 Bft) S-SO 0.00 h 0.0 UV-I 27 W/m 1.3 C 3.9 C 3.2 km/h (1 Bft)
12.12.2006 10:00 4.5 C 81 % 1029.0 hPa 0.0 l/m 0.4 km/h (0 Bft) SO 0.00 h 0.5 UV-I 63 W/m 1.5 C 4.5 C 1.4 km/h (1 Bft)
12.12.2006 11:00 5.1 C 79 % 1029.2 hPa 0.0 l/m 1.2 km/h (1 Bft) S 0.00 h 0.6 UV-I 67 W/m 1.7 C 5.1 C 3.6 km/h (1 Bft)
12.12.2006 12:00 5.6 C 75 % 1028.4 hPa 0.0 l/m 1.8 km/h (1 Bft) S 0.00 h 0.7 UV-I 89 W/m 1.5 C 5.6 C 4.7 km/h (1 Bft)
12.12.2006 13:00 6.2 C 71 % 1027.7 hPa 0.0 l/m 2.2 km/h (1 Bft) S 0.00 h 0.6 UV-I 81 W/m 1.4 C 6.2 C 5.2 km/h (1 Bft)
12.12.2006 14:00 6.5 C 69 % 1027.2 hPa 0.0 l/m 2.1 km/h (1 Bft) S-SW 0.00 h 0.5 UV-I 65 W/m 1.3 C 6.5 C 4.9 km/h (1 Bft)
12.12.2006 15:00 6.6 C 71 % 1027.1 hPa 0.0 l/m 0.7 km/h (0 Bft) S-SO 0.00 h 0.0 UV-I 37 W/m 1.7 C 6.6 C 2.3 km/h (1 Bft)
12.12.2006 16:00 6.5 C 70 % 1027.0 hPa 0.0 l/m 0.3 km/h (0 Bft) W-SW 0.05 h 0.0 UV-I 12 W/m 1.5 C 6.5 C 1.3 km/h (1 Bft)
12.12.2006 17:00 5.8 C 75 % 1027.1 hPa 0.0 l/m 0.4 km/h (0 Bft) S-SW 0.00 h 0.0 UV-I 0 W/m 1.8 C 5.8 C 1.0 km/h (0 Bft)
12.12.2006 18:00 5.2 C 79 % 1027.7 hPa 0.0 l/m 0.5 km/h (0 Bft) SO 0.00 h 0.0 UV-I 0 W/m 1.9 C 5.2 C 1.4 km/h (1 Bft)
12.12.2006 19:00 4.9 C 82 % 1028.3 hPa 0.0 l/m 1.0 km/h (0 Bft) SO 0.00 h 0.0 UV-I 0 W/m 2.1 C 4.9 C 2.3 km/h (1 Bft)
12.12.2006 20:00 4.5 C 82 % 1028.3 hPa 0.0 l/m 1.7 km/h (1 Bft) O-SO 0.00 h 0.0 UV-I 0 W/m 1.7 C 4.2 C 2.5 km/h (1 Bft)
12.12.2006 21:00 3.5 C 86 % 1028.8 hPa 0.0 l/m 1.2 km/h (1 Bft) O-SO 0.00 h 0.0 UV-I 0 W/m 1.5 C 3.4 C 2.1 km/h (1 Bft)
12.12.2006 22:00 2.2 C 90 % 1029.0 hPa 0.0 l/m 2.9 km/h (1 Bft) O 0.00 h 0.0 UV-I 0 W/m 0.7 C 2.0 C 3.9 km/h (1 Bft)
12.12.2006 23:00 2.0 C 91 % 1029.6 hPa 0.0 l/m 3.5 km/h (1 Bft) O 0.00 h 0.0 UV-I 0 W/m 0.6 C 1.3 C 4.8 km/h (1 Bft)
13.12.2006 00:00 2.3 C 91 % 1029.9 hPa 0.0 l/m 1.9 km/h (1 Bft) O 0.00 h 0.0 UV-I 0 W/m 1.0 C 2.0 C 3.2 km/h (1 Bft)
13.12.2006 01:00 2.8 C 92 % 1029.9 hPa 0.0 l/m 1.1 km/h (0 Bft) S-SO 0.00 h 0.0 UV-I 0 W/m 1.6 C 2.6 C 1.6 km/h (1 Bft)
13.12.2006 02:00 3.9 C 91 % 1029.9 hPa 0.0 l/m 3.6 km/h (1 Bft) W-NW 0.00 h 0.0 UV-I 0 W/m 2.6 C 3.3 C 6.2 km/h (2 Bft)
13.12.2006 03:00 4.9 C 86 % 1030.3 hPa 0.0 l/m 6.4 km/h (2 Bft) W 0.00 h 0.0 UV-I 0 W/m 2.7 C 3.5 C 9.5 km/h (2 Bft)
13.12.2006 04:00 5.0 C 83 % 1030.6 hPa 0.0 l/m 4.1 km/h (1 Bft) W-NW 0.00 h 0.0 UV-I 0 W/m 2.4 C 4.4 C 7.1 km/h (2 Bft)
13.12.2006 05:00 4.4 C 84 % 1031.2 hPa 0.0 l/m 1.5 km/h (1 Bft) S 0.00 h 0.0 UV-I 0 W/m 1.9 C 4.3 C 4.1 km/h (1 Bft)
13.12.2006 06:00 2.4 C 88 % 1031.8 hPa 0.0 l/m 3.5 km/h (1 Bft) S-SO 0.00 h 0.0 UV-I 0 W/m 0.7 C 2.0 C 6.7 km/h (2 Bft)
13.12.2006 07:00 1.3 C 92 % 1032.5 hPa 0.0 l/m 3.4 km/h (1 Bft) O-SO 0.00 h 0.0 UV-I 0 W/m 0.2 C 0.7 C 6.1 km/h (2 Bft)
13.12.2006 08:00 1.3 C 93 % 1033.5 hPa 0.0 l/m 3.8 km/h (1 Bft) SO 0.08 h 0.0 UV-I 24 W/m 0.3 C 0.7 C 6.5 km/h (2 Bft)
13.12.2006 09:00 1.7 C 91 % 1034.1 hPa 0.0 l/m 3.4 km/h (1 Bft) S-SO 0.00 h 0.5 UV-I 48 W/m 0.4 C 1.2 C 6.2 km/h (2 Bft)
13.12.2006 10:00 2.5 C 89 % 1034.5 hPa 0.0 l/m 3.5 km/h (1 Bft) SO 0.20 h 0.7 UV-I 84 W/m 0.9 C 2.0 C 6.1 km/h (2 Bft)
13.12.2006 11:00 4.3 C 82 % 1033.8 hPa 0.0 l/m 2.2 km/h (1 Bft) S 1.00 h 1.0 UV-I 251 W/m 1.5 C 4.1 C 5.3 km/h (1 Bft)
13.12.2006 12:00 5.7 C 77 % 1033.4 hPa 0.0 l/m 1.2 km/h (1 Bft) S 0.97 h 1.1 UV-I 246 W/m 2.0 C 5.7 C 3.7 km/h (1 Bft)
13.12.2006 13:00 6.3 C 74 % 1032.8 hPa 0.0 l/m 1.1 km/h (1 Bft) SW 1.00 h 1.0 UV-I 226 W/m 2.1 C 6.3 C 3.1 km/h (1 Bft)
13.12.2006 14:00 6.8 C 71 % 1032.1 hPa 0.0 l/m 0.7 km/h (0 Bft) O-SO 0.55 h 0.7 UV-I 133 W/m 1.9 C 6.8 C 2.2 km/h (1 Bft)
13.12.2006 15:00 6.8 C 72 % 1032.2 hPa 0.0 l/m 0.4 km/h (0 Bft) SW 0.25 h 0.5 UV-I 62 W/m 2.1 C 6.8 C 1.8 km/h (1 Bft)
13.12.2006 16:00 5.5 C 80 % 1032.4 hPa 0.0 l/m 0.3 km/h (0 Bft) SO 0.05 h 0.0 UV-I 14 W/m 2.3 C 5.5 C 0.8 km/h (0 Bft)
13.12.2006 17:00 3.3 C 87 % 1032.9 hPa 0.0 l/m 1.9 km/h (1 Bft) O-SO 0.00 h 0.0 UV-I 0 W/m 1.4 C 3.2 C 3.2 km/h (1 Bft)
13.12.2006 18:00 1.8 C 91 % 1033.6 hPa 0.0 l/m 3.1 km/h (1 Bft) O-SO 0.00 h 0.0 UV-I 0 W/m 0.6 C 1.5 C 4.5 km/h (1 Bft)
13.12.2006 19:00 1.2 C 92 % 1033.8 hPa 0.0 l/m 1.8 km/h (1 Bft) SO 0.00 h 0.0 UV-I 0 W/m 0.1 C 0.9 C 2.9 km/h (1 Bft)
13.12.2006 20:00 0.5 C 95 % 1034.2 hPa 0.0 l/m 2.5 km/h (1 Bft) SO 0.00 h 0.0 UV-I 0 W/m -0.1 C 0.2 C 3.7 km/h (1 Bft)
13.12.2006 21:00 0.2 C 95 % 1034.2 hPa 0.0 l/m 2.3 km/h (1 Bft) O-SO 0.00 h 0.0 UV-I 0 W/m -0.5 C -0.0 C 3.6 km/h (1 Bft)
13.12.2006 22:00 -0.2 C 96 % 1034.1 hPa 0.0 l/m 1.4 km/h (1 Bft) O-SO 0.00 h 0.0 UV-I 0 W/m -0.8 C -0.4 C 2.2 km/h (1 Bft)
13.12.2006 23:00 -0.8 C 97 % 1034.1 hPa 0.0 l/m 0.4 km/h (0 Bft) O-SO 0.00 h 0.0 UV-I 0 W/m -1.2 C -0.8 C 0.8 km/h (0 Bft)
14.12.2006 00:00 -1.2 C 97 % 1034.2 hPa 0.0 l/m 0.6 km/h (0 Bft) O-SO 0.00 h 0.0 UV-I 0 W/m -1.5 C -1.2 C 1.1 km/h (1 Bft)
14.12.2006 01:00 -0.8 C 98 % 1034.0 hPa 0.0 l/m 0.3 km/h (0 Bft) O-SO 0.00 h 0.0 UV-I 0 W/m -1.1 C -0.8 C 0.9 km/h (0 Bft)
14.12.2006 02:00 -1.0 C 99 % 1034.0 hPa 0.0 l/m 0.4 km/h (0 Bft) S 0.00 h 0.0 UV-I 0 W/m -1.1 C -1.0 C 1.3 km/h (1 Bft)
14.12.2006 03:00 -0.7 C 99 % 1034.1 hPa 0.0 l/m 0.3 km/h (0 Bft) S 0.00 h 0.0 UV-I 0 W/m -0.8 C -0.7 C 1.1 km/h (1 Bft)
14.12.2006 04:00 -1.0 C 99 % 1034.5 hPa 0.0 l/m 1.9 km/h (1 Bft) SO 0.00 h 0.0 UV-I 0 W/m -1.1 C -1.0 C 3.7 km/h (1 Bft)
14.12.2006 05:00 -1.0 C 99 % 1034.7 hPa 0.0 l/m 1.7 km/h (1 Bft) O 0.00 h 0.0 UV-I 0 W/m -1.2 C -1.2 C 3.5 km/h (1 Bft)
14.12.2006 06:00 -1.1 C 99 % 1035.1 hPa 0.0 l/m 2.1 km/h (1 Bft) O 0.00 h 0.0 UV-I 0 W/m -1.2 C -1.2 C 4.3 km/h (1 Bft)
14.12.2006 07:00 -1.2 C 99 % 1035.2 hPa 0.0 l/m 3.4 km/h (1 Bft) O-SO 0.00 h 0.0 UV-I 0 W/m -1.4 C -1.7 C 5.7 km/h (1 Bft)
14.12.2006 08:00 -1.3 C 99 % 1035.6 hPa 0.0 l/m 2.6 km/h (1 Bft) O-SO 0.10 h 0.0 UV-I 18 W/m -1.4 C -1.8 C 4.8 km/h (1 Bft)
14.12.2006 09:00 -1.1 C 99 % 1035.7 hPa 0.0 l/m 0.5 km/h (0 Bft) O 0.00 h 0.0 UV-I 40 W/m -1.2 C -1.1 C 1.7 km/h (1 Bft)
14.12.2006 10:00 -1.0 C 99 % 1035.8 hPa 0.0 l/m 2.5 km/h (1 Bft) SO 0.00 h 0.5 UV-I 84 W/m -1.2 C -1.3 C 4.6 km/h (1 Bft)
14.12.2006 11:00 -0.5 C 100 % 1035.5 hPa 0.0 l/m 1.2 km/h (1 Bft) S-SO 0.05 h 0.8 UV-I 130 W/m -0.5 C -0.5 C 3.0 km/h (1 Bft)
14.12.2006 12:00 0.2 C 100 % 1034.7 hPa 0.0 l/m 0.7 km/h (0 Bft) SO 0.08 h 0.8 UV-I 131 W/m 0.2 C 0.2 C 2.6 km/h (1 Bft)
14.12.2006 13:00 0.9 C 100 % 1034.2 hPa 0.0 l/m 0.6 km/h (0 Bft) O-SO 0.00 h 0.7 UV-I 91 W/m 0.9 C 0.9 C 2.0 km/h (1 Bft)
14.12.2006 14:00 1.3 C 100 % 1033.8 hPa 0.0 l/m 0.3 km/h (0 Bft) S 0.00 h 0.5 UV-I 72 W/m 1.3 C 1.3 C 1.7 km/h (1 Bft)
14.12.2006 15:00 1.6 C 100 % 1033.7 hPa 0.0 l/m 0.2 km/h (0 Bft) S 0.00 h 0.0 UV-I 34 W/m 1.6 C 1.6 C 1.0 km/h (0 Bft)
14.12.2006 16:00 1.2 C 100 % 1033.7 hPa 0.0 l/m 1.1 km/h (1 Bft) O-SO 0.00 h 0.0 UV-I 9 W/m 1.2 C 1.1 C 2.3 km/h (1 Bft)
14.12.2006 17:00 0.6 C 100 % 1033.8 hPa 0.0 l/m 1.1 km/h (1 Bft) O-SO 0.00 h 0.0 UV-I 0 W/m 0.6 C 0.6 C 2.3 km/h (1 Bft)
14.12.2006 18:00 0.2 C 100 % 1034.1 hPa 0.0 l/m 1.4 km/h (1 Bft) O-SO 0.00 h 0.0 UV-I 0 W/m 0.2 C 0.1 C 2.9 km/h (1 Bft)
14.12.2006 19:00 -0.3 C 100 % 1034.4 hPa 0.0 l/m 1.6 km/h (1 Bft) O 0.00 h 0.0 UV-I 0 W/m -0.3 C -0.3 C 3.4 km/h (1 Bft)
14.12.2006 20:00 -0.5 C 100 % 1034.4 hPa 0.0 l/m 0.9 km/h (0 Bft) O 0.00 h 0.0 UV-I 0 W/m -0.5 C -0.5 C 2.2 km/h (1 Bft)
14.12.2006 21:00 -0.6 C 100 % 1034.2 hPa 0.0 l/m 1.3 km/h (1 Bft) O-SO 0.00 h 0.0 UV-I 0 W/m -0.7 C -0.8 C 2.6 km/h (1 Bft)
14.12.2006 22:00 -1.2 C 99 % 1034.4 hPa 0.0 l/m 0.6 km/h (0 Bft) S-SO 0.00 h 0.0 UV-I 0 W/m -1.3 C -1.2 C 1.8 km/h (1 Bft)
14.12.2006 23:00 -1.2 C 100 % 1034.5 hPa 0.0 l/m 0.5 km/h (0 Bft) S-SO 0.00 h 0.0 UV-I 0 W/m -1.3 C -1.2 C 2.0 km/h (1 Bft)
15.12.2006 00:00 -1.6 C 99 % 1034.4 hPa 0.0 l/m 1.7 km/h (1 Bft) SO 0.00 h 0.0 UV-I 0 W/m -1.8 C -1.8 C 3.8 km/h (1 Bft)
15.12.2006 01:00 -1.6 C 100 % 1034.1 hPa 0.0 l/m 3.2 km/h (1 Bft) O 0.00 h 0.0 UV-I 0 W/m -1.7 C -2.2 C 5.5 km/h (1 Bft)
15.12.2006 02:00 -1.5 C 99 % 1034.2 hPa 0.0 l/m 2.6 km/h (1 Bft) O 0.00 h 0.0 UV-I 0 W/m -1.5 C -1.5 C 5.0 km/h (1 Bft)
15.12.2006 03:00 -1.4 C 100 % 1034.1 hPa 0.0 l/m 5.0 km/h (1 Bft) O-SO 0.00 h 0.0 UV-I 0 W/m -1.4 C -2.8 C 7.7 km/h (2 Bft)
15.12.2006 04:00 -1.2 C 100 % 1033.9 hPa 0.0 l/m 4.2 km/h (1 Bft) O-SO 0.00 h 0.0 UV-I 0 W/m -1.2 C -2.2 C 6.7 km/h (2 Bft)
15.12.2006 05:00 -1.3 C 100 % 1033.8 hPa 0.0 l/m 2.4 km/h (1 Bft) O-SO 0.00 h 0.0 UV-I 0 W/m -1.3 C -1.9 C 3.8 km/h (1 Bft)
15.12.2006 06:00 -1.1 C 100 % 1033.6 hPa 0.0 l/m 3.2 km/h (1 Bft) O-SO 0.00 h 0.0 UV-I 0 W/m -1.1 C -1.6 C 5.2 km/h (1 Bft)
15.12.2006 07:00 -0.9 C 100 % 1034.0 hPa 0.0 l/m 0.9 km/h (0 Bft) O-NO 0.00 h 0.0 UV-I 0 W/m -0.9 C -0.9 C 2.0 km/h (1 Bft)
15.12.2006 08:00 -0.6 C 100 % 1034.3 hPa 0.0 l/m 0.3 km/h (0 Bft) O-NO 0.00 h 0.0 UV-I 7 W/m -0.6 C -0.6 C 0.7 km/h (0 Bft)
15.12.2006 09:00 -0.4 C 100 % 1034.4 hPa 0.0 l/m 1.8 km/h (1 Bft) SO 0.00 h 0.0 UV-I 24 W/m -0.4 C -0.5 C 3.7 km/h (1 Bft)
15.12.2006 10:00 -0.0 C 100 % 1034.5 hPa 0.0 l/m 2.3 km/h (1 Bft) S-SO 0.00 h 0.0 UV-I 43 W/m -0.0 C -0.4 C 5.1 km/h (1 Bft)
15.12.2006 11:00 0.5 C 100 % 1034.2 hPa 0.0 l/m 0.8 km/h (0 Bft) S-SW 0.00 h 0.5 UV-I 67 W/m 0.5 C 0.5 C 3.0 km/h (1 Bft)
15.12.2006 12:00 1.1 C 98 % 1033.5 hPa 0.0 l/m 0.8 km/h (0 Bft) S-SW 0.00 h 0.7 UV-I 105 W/m 0.8 C 1.1 C 2.5 km/h (1 Bft)
15.12.2006 13:00 2.5 C 90 % 1032.9 hPa 0.0 l/m 1.6 km/h (1 Bft) W 0.78 h 0.9 UV-I 191 W/m 1.0 C 2.5 C 3.6 km/h (1 Bft)
15.12.2006 14:00 2.9 C 88 % 1032.5 hPa 0.0 l/m 1.5 km/h (1 Bft) W-NW 0.57 h 0.7 UV-I 129 W/m 1.0 C 2.9 C 3.3 km/h (1 Bft)
15.12.2006 15:00 2.3 C 91 % 1032.2 hPa 0.0 l/m 0.4 km/h (0 Bft) W 0.18 h 0.5 UV-I 60 W/m 1.0 C 2.3 C 1.6 km/h (1 Bft)
15.12.2006 16:00 1.0 C 96 % 1032.4 hPa 0.0 l/m 0.6 km/h (0 Bft) S-SO 0.02 h 0.0 UV-I 12 W/m 0.4 C 1.0 C 1.5 km/h (1 Bft)
15.12.2006 17:00 0.6 C 97 % 1032.6 hPa 0.0 l/m 4.6 km/h (1 Bft) O-SO 0.00 h 0.0 UV-I 0 W/m 0.2 C -0.5 C 6.3 km/h (2 Bft)
15.12.2006 18:00 0.4 C 98 % 1032.8 hPa 0.0 l/m 1.4 km/h (1 Bft) O-SO 0.00 h 0.0 UV-I 0 W/m 0.1 C 0.2 C 2.4 km/h (1 Bft)
15.12.2006 19:00 0.2 C 98 % 1032.8 hPa 0.0 l/m 2.9 km/h (1 Bft) O-SO 0.00 h 0.0 UV-I 0 W/m -0.1 C -0.2 C 4.6 km/h (1 Bft)
15.12.2006 20:00 -0.3 C 98 % 1032.8 hPa 0.0 l/m 2.9 km/h (1 Bft) O-SO 0.00 h 0.0 UV-I 0 W/m -0.6 C -0.5 C 5.0 km/h (1 Bft)
15.12.2006 21:00 -0.7 C 99 % 1032.5 hPa 0.0 l/m 1.2 km/h (1 Bft) O-SO 0.00 h 0.0 UV-I 0 W/m -0.8 C -0.7 C 3.3 km/h (1 Bft)
15.12.2006 22:00 -0.9 C 99 % 1032.1 hPa 0.0 l/m 1.4 km/h (1 Bft) O-SO 0.00 h 0.0 UV-I 0 W/m -1.1 C -1.0 C 3.4 km/h (1 Bft)
15.12.2006 23:00 -1.2 C 99 % 1031.9 hPa 0.0 l/m 2.6 km/h (1 Bft) O-SO 0.00 h 0.0 UV-I 0 W/m -1.4 C -1.5 C 4.9 km/h (1 Bft)
16.12.2006 00:00 -1.5 C 99 % 1031.3 hPa 0.0 l/m 2.9 km/h (1 Bft) O 0.00 h 0.0 UV-I 0 W/m -1.6 C -1.8 C 5.3 km/h (1 Bft)
16.12.2006 01:00 -1.7 C 99 % 1030.7 hPa 0.0 l/m 2.7 km/h (1 Bft) O 0.00 h 0.0 UV-I 0 W/m -1.8 C -1.9 C 5.2 km/h (1 Bft)
16.12.2006 02:00 -1.9 C 99 % 1030.5 hPa 0.0 l/m 3.2 km/h (1 Bft) O-SO 0.00 h 0.0 UV-I 0 W/m -2.0 C -2.6 C 5.2 km/h (1 Bft)
16.12.2006 03:00 -1.9 C 99 % 1030.5 hPa 0.0 l/m 4.1 km/h (1 Bft) O 0.00 h 0.0 UV-I 0 W/m -2.0 C -2.9 C 6.3 km/h (2 Bft)
16.12.2006 04:00 -1.7 C 99 % 1030.2 hPa 0.0 l/m 3.8 km/h (1 Bft) O-SO 0.00 h 0.0 UV-I 0 W/m -1.9 C -2.5 C 6.1 km/h (2 Bft)
16.12.2006 05:00 -1.6 C 99 % 1030.1 hPa 0.0 l/m 3.9 km/h (1 Bft) O-SO 0.00 h 0.0 UV-I 0 W/m -1.7 C -2.2 C 6.2 km/h (2 Bft)
16.12.2006 06:00 -1.4 C 99 % 1030.3 hPa 0.0 l/m 2.0 km/h (1 Bft) O 0.00 h 0.0 UV-I 0 W/m -1.5 C -1.5 C 3.9 km/h (1 Bft)
16.12.2006 07:00 -1.6 C 99 % 1030.7 hPa 0.0 l/m 3.2 km/h (1 Bft) O-SO 0.00 h 0.0 UV-I 0 W/m -1.8 C -2.1 C 5.3 km/h (1 Bft)
16.12.2006 08:00 -1.9 C 98 % 1030.7 hPa 0.0 l/m 3.1 km/h (1 Bft) O-SO 0.05 h 0.0 UV-I 20 W/m -2.1 C -2.5 C 5.1 km/h (1 Bft)
16.12.2006 09:00 -1.4 C 98 % 1030.8 hPa 0.0 l/m 1.9 km/h (1 Bft) O 0.05 h 0.5 UV-I 64 W/m -1.7 C -1.7 C 3.7 km/h (1 Bft)
16.12.2006 10:00 -0.2 C 93 % 1030.6 hPa 0.2 l/m 0.4 km/h (0 Bft) O-SO 0.15 h 0.7 UV-I 115 W/m -1.2 C -0.2 C 1.4 km/h (1 Bft)
16.12.2006 11:00 1.4 C 88 % 1030.0 hPa 0.0 l/m 0.8 km/h (0 Bft) O-SO 0.43 h 0.8 UV-I 183 W/m -0.3 C 1.4 C 2.0 km/h (1 Bft)
16.12.2006 12:00 2.9 C 83 % 1028.8 hPa 0.0 l/m 0.8 km/h (0 Bft) N 0.93 h 1.0 UV-I 231 W/m 0.3 C 2.9 C 2.3 km/h (1 Bft)
16.12.2006 13:00 4.1 C 79 % 1027.7 hPa 0.0 l/m 0.4 km/h (0 Bft) W 0.80 h 0.9 UV-I 187 W/m 0.7 C 4.1 C 1.7 km/h (1 Bft)
16.12.2006 14:00 5.0 C 76 % 1026.7 hPa 0.0 l/m 1.0 km/h (0 Bft) N-NW 0.33 h 0.6 UV-I 120 W/m 1.2 C 5.0 C 2.6 km/h (1 Bft)
16.12.2006 15:00 4.3 C 82 % 1026.5 hPa 0.0 l/m 0.1 km/h (0 Bft) W 0.00 h 0.5 UV-I 54 W/m 1.5 C 4.3 C 0.7 km/h (0 Bft)
16.12.2006 16:00 3.4 C 87 % 1026.6 hPa 0.0 l/m 0.0 km/h (0 Bft) W 0.03 h 0.0 UV-I 15 W/m 1.4 C 3.4 C 0.3 km/h (0 Bft)
16.12.2006 17:00 2.8 C 90 % 1026.6 hPa 0.0 l/m 0.4 km/h (0 Bft) W-NW 0.00 h 0.0 UV-I 0 W/m 1.4 C 2.8 C 1.0 km/h (0 Bft)
16.12.2006 18:00 2.8 C 93 % 1026.8 hPa 0.0 l/m 0.9 km/h (0 Bft) W-NW 0.00 h 0.0 UV-I 0 W/m 1.8 C 2.7 C 2.0 km/h (1 Bft)
16.12.2006 19:00 2.8 C 96 % 1026.9 hPa 0.0 l/m 0.4 km/h (0 Bft) NO 0.00 h 0.0 UV-I 0 W/m 2.2 C 2.8 C 1.4 km/h (1 Bft)
16.12.2006 20:00 2.9 C 97 % 1027.1 hPa 0.2 l/m 0.2 km/h (0 Bft) N-NO 0.00 h 0.0 UV-I 0 W/m 2.4 C 2.9 C 0.8 km/h (0 Bft)
16.12.2006 21:00 3.0 C 97 % 1027.3 hPa 0.2 l/m 0.1 km/h (0 Bft) S 0.00 h 0.0 UV-I 0 W/m 2.6 C 3.0 C 0.4 km/h (0 Bft)
16.12.2006 22:00 3.3 C 98 % 1027.5 hPa 0.0 l/m 0.3 km/h (0 Bft) O 0.00 h 0.0 UV-I 0 W/m 3.0 C 3.3 C 1.1 km/h (1 Bft)
16.12.2006 23:00 3.6 C 98 % 1027.7 hPa 0.0 l/m 1.4 km/h (1 Bft) SO 0.00 h 0.0 UV-I 0 W/m 3.2 C 3.6 C 2.8 km/h (1 Bft)
17.12.2006 00:00 3.9 C 97 % 1027.6 hPa 0.0 l/m 0.2 km/h (0 Bft) SO 0.00 h 0.0 UV-I 0 W/m 3.5 C 3.9 C 1.2 km/h (1 Bft)
17.12.2006 01:00 3.1 C 98 % 1027.7 hPa 0.0 l/m 0.4 km/h (0 Bft) O 0.00 h 0.0 UV-I 0 W/m 2.8 C 3.1 C 0.9 km/h (0 Bft)
17.12.2006 02:00 3.1 C 99 % 1027.7 hPa 0.0 l/m 0.1 km/h (0 Bft) O 0.00 h 0.0 UV-I 0 W/m 2.9 C 3.1 C 0.5 km/h (0 Bft)
17.12.2006 03:00 3.1 C 99 % 1027.9 hPa 0.4 l/m 0.0 km/h (0 Bft) O 0.00 h 0.0 UV-I 0 W/m 3.0 C 3.1 C 0.2 km/h (0 Bft)
17.12.2006 04:00 3.2 C 99 % 1027.8 hPa 0.0 l/m 0.2 km/h (0 Bft) O 0.00 h 0.0 UV-I 0 W/m 3.1 C 3.2 C 0.9 km/h (0 Bft)
17.12.2006 05:00 3.2 C 99 % 1027.4 hPa 0.0 l/m 0.1 km/h (0 Bft) N 0.00 h 0.0 UV-I 0 W/m 3.0 C 3.2 C 0.5 km/h (0 Bft)
17.12.2006 06:00 3.4 C 99 % 1027.3 hPa 0.0 l/m 1.2 km/h (1 Bft) O-SO 0.00 h 0.0 UV-I 0 W/m 3.2 C 3.4 C 2.3 km/h (1 Bft)
17.12.2006 07:00 3.9 C 99 % 1027.3 hPa 0.0 l/m 0.1 km/h (0 Bft) O 0.00 h 0.0 UV-I 0 W/m 3.8 C 3.9 C 0.6 km/h (0 Bft)
17.12.2006 08:00 3.8 C 99 % 1027.5 hPa 0.2 l/m 0.5 km/h (0 Bft) O 0.00 h 0.0 UV-I 6 W/m 3.7 C 3.8 C 1.5 km/h (1 Bft)
17.12.2006 09:00 4.5 C 99 % 1027.7 hPa 0.0 l/m 0.3 km/h (0 Bft) O 0.00 h 0.0 UV-I 11 W/m 4.4 C 4.5 C 1.4 km/h (1 Bft)
17.12.2006 10:00 4.5 C 100 % 1028.0 hPa 0.0 l/m 0.6 km/h (0 Bft) SO 0.00 h 0.0 UV-I 31 W/m 4.5 C 4.5 C 1.7 km/h (1 Bft)
17.12.2006 11:00 5.0 C 100 % 1027.9 hPa 0.0 l/m 0.1 km/h (0 Bft) SW 0.00 h 0.5 UV-I 38 W/m 5.0 C 5.0 C 0.4 km/h (0 Bft)
17.12.2006 12:00 5.6 C 100 % 1027.2 hPa 0.0 l/m 1.1 km/h (0 Bft) W-NW 0.00 h 0.5 UV-I 37 W/m 5.6 C 5.5 C 2.4 km/h (1 Bft)
17.12.2006 13:00 5.6 C 99 % 1026.8 hPa 0.0 l/m 0.7 km/h (0 Bft) N-NW 0.00 h 0.0 UV-I 16 W/m 5.5 C 5.6 C 1.7 km/h (1 Bft)
17.12.2006 14:00 5.6 C 99 % 1026.5 hPa 0.0 l/m 0.1 km/h (0 Bft) NO 0.00 h 0.0 UV-I 11 W/m 5.5 C 5.6 C 0.5 km/h (0 Bft)
17.12.2006 15:00 5.6 C 98 % 1026.6 hPa 0.0 l/m 1.3 km/h (1 Bft) W-NW 0.00 h 0.0 UV-I 5 W/m 5.3 C 5.6 C 2.8 km/h (1 Bft)
17.12.2006 16:00 5.5 C 96 % 1026.8 hPa 0.0 l/m 0.9 km/h (0 Bft) NW 0.00 h 0.0 UV-I 0 W/m 5.0 C 5.5 C 2.2 km/h (1 Bft)
17.12.2006 17:00 5.4 C 94 % 1027.1 hPa 0.0 l/m 0.6 km/h (0 Bft) W-NW 0.00 h 0.0 UV-I 0 W/m 4.6 C 5.4 C 1.7 km/h (1 Bft)
17.12.2006 18:00 5.2 C 93 % 1027.2 hPa 0.0 l/m 0.0 km/h (0 Bft) W-NW 0.00 h 0.0 UV-I 0 W/m 4.2 C 5.2 C 0.4 km/h (0 Bft)
17.12.2006 19:00 5.1 C 93 % 1027.6 hPa 0.0 l/m 0.6 km/h (0 Bft) W-NW 0.00 h 0.0 UV-I 0 W/m 4.0 C 5.1 C 1.6 km/h (1 Bft)
17.12.2006 20:00 5.0 C 93 % 1028.0 hPa 0.2 l/m 0.1 km/h (0 Bft) N-NW 0.00 h 0.0 UV-I 0 W/m 3.9 C 5.0 C 0.7 km/h (0 Bft)
17.12.2006 21:00 4.5 C 90 % 1028.2 hPa 0.0 l/m 1.4 km/h (1 Bft) N-NO 0.00 h 0.0 UV-I 0 W/m 3.1 C 4.5 C 3.6 km/h (1 Bft)
17.12.2006 22:00 3.7 C 87 % 1028.4 hPa 0.0 l/m 0.9 km/h (0 Bft) O-SO 0.00 h 0.0 UV-I 0 W/m 1.8 C 3.6 C 2.2 km/h (1 Bft)
17.12.2006 23:00 2.8 C 89 % 1028.5 hPa 0.0 l/m 0.1 km/h (0 Bft) NO 0.00 h 0.0 UV-I 0 W/m 1.2 C 2.8 C 0.4 km/h (0 Bft)
Min-Datum _ 16.12.06 12.12.06 12.12.06 - 11.12.06 - - - - 16.12.06 16.12.06 11.12.06
_ Min-Zeit 03:22 14:24 03:45 - 00:00 - - - - 08:09 08:22 00:01
Minimum _ -2.0 C 66 % 1025.7 hPa - 0.0 km/h (0 Bft) - - - - -2.2 C -5.3 C 0.0 km/h (0 Bft)
Max-Datum _ 13.12.06 11.12.06 14.12.06 17.12.06 11.12.06 - 11.12.06 13.12.06 11.12.06 17.12.06 13.12.06 11.12.06
_ Max-Zeit 14:56 01:21 09:00 03:32 13:10 - 08:17 11:34 10:59 12:40 14:56 13:10
Maximum _ 7.2 C 100 % 1035.8 hPa 0.4 l/m 14.2 km/h
SW (3 Bft)
- 0.02 h 1.1 UV-I 388 W/m 5.8 C 7.2 C 25.2 km/h
SW (4 Bft)
Durchschnitt _ 2.1 C 92 % 1030.8 hPa #1.6 l/m 1.5 km/h (1 Bft) O-SO #10:12 h 0.7 UV-I 76 W/m 0.8 C 1.9 C 3.2 km/h (1 Bft)
© Kaiko 2006